createdAt,value
2017-01-02T00:00:45.758Z,1007.5
2017-01-02T00:03:18.075Z,1007.5
2017-01-02T00:05:50.423Z,1007.5
2017-01-02T00:08:22.755Z,1007.5
2017-01-02T00:10:55.087Z,1007.5
2017-01-02T00:13:27.416Z,1007.5
2017-01-02T00:15:59.740Z,1007.6
2017-01-02T00:18:32.046Z,1007.5
2017-01-02T00:21:04.371Z,1007.5
2017-01-02T00:23:36.679Z,1007.4
2017-01-02T00:26:09.008Z,1007.5
2017-01-02T00:28:41.342Z,1007.5
2017-01-02T00:31:13.699Z,1007.5
2017-01-02T00:33:46.027Z,1007.6
2017-01-02T00:36:18.341Z,1007.5
2017-01-02T00:38:50.663Z,1007.6
2017-01-02T00:41:22.977Z,1007.6
2017-01-02T00:43:55.308Z,1007.7
2017-01-02T00:46:27.637Z,1007.6
2017-01-02T00:48:59.953Z,1007.7
2017-01-02T00:51:32.285Z,1007.8
2017-01-02T00:54:04.636Z,1007.8
2017-01-02T00:56:36.961Z,1007.7
2017-01-02T00:59:09.477Z,1007.6
2017-01-02T01:01:41.800Z,1007.6
2017-01-02T01:04:14.111Z,1007.7
2017-01-02T01:06:46.440Z,1007.7
2017-01-02T01:09:18.773Z,1007.8
2017-01-02T01:11:51.097Z,1007.7
2017-01-02T01:14:23.883Z,1007.8
2017-01-02T01:16:56.219Z,1007.7
2017-01-02T01:19:28.540Z,1007.8
2017-01-02T01:22:00.886Z,1007.7
2017-01-02T01:24:33.206Z,1007.7
2017-01-02T01:27:05.568Z,1007.7
2017-01-02T01:29:37.875Z,1007.7
2017-01-02T01:32:10.206Z,1007.7
2017-01-02T01:34:42.538Z,1007.8
2017-01-02T01:37:14.869Z,1007.8
2017-01-02T01:39:47.215Z,1007.7
2017-01-02T01:42:19.532Z,1007.8
2017-01-02T01:44:51.841Z,1007.8
2017-01-02T01:47:24.173Z,1007.9
2017-01-02T01:49:56.483Z,1008
2017-01-02T01:52:29.236Z,1008
2017-01-02T01:55:01.535Z,1008
2017-01-02T01:57:33.870Z,1008
2017-01-02T02:00:06.180Z,1008
2017-01-02T02:02:38.942Z,1008
2017-01-02T02:05:11.257Z,1008
2017-01-02T02:07:43.598Z,1007.9
2017-01-02T02:10:15.908Z,1007.9
2017-01-02T02:12:48.227Z,1007.9
2017-01-02T02:15:20.579Z,1007.9
2017-01-02T02:17:52.887Z,1007.9
2017-01-02T02:20:25.216Z,1008
2017-01-02T02:22:57.544Z,1007.9
2017-01-02T02:25:29.875Z,1007.9
2017-01-02T02:28:02.203Z,1007.9
2017-01-02T02:30:34.514Z,1007.9
2017-01-02T02:33:06.824Z,1007.9
2017-01-02T02:35:39.145Z,1007.9
2017-01-02T02:38:11.488Z,1007.8
2017-01-02T02:40:43.826Z,1007.9
2017-01-02T02:43:16.148Z,1007.8
2017-01-02T02:45:48.459Z,1007.8
2017-01-02T02:48:20.818Z,1007.8
2017-01-02T02:50:53.134Z,1007.8
2017-01-02T02:53:25.463Z,1007.8
2017-01-02T02:55:57.800Z,1007.7
2017-01-02T02:58:30.111Z,1007.7
2017-01-02T03:01:02.432Z,1007.7
2017-01-02T03:03:34.744Z,1007.8
2017-01-02T03:06:07.086Z,1007.7
2017-01-02T03:08:39.412Z,1007.8
2017-01-02T03:11:11.790Z,1007.8
2017-01-02T03:13:44.099Z,1007.8
2017-01-02T03:16:16.423Z,1007.9
2017-01-02T03:18:48.739Z,1007.9
2017-01-02T03:21:21.499Z,1007.9
2017-01-02T03:23:53.830Z,1007.8
2017-01-02T03:26:26.136Z,1007.8
2017-01-02T03:28:58.451Z,1007.8
2017-01-02T03:31:30.786Z,1007.7
2017-01-02T03:34:03.115Z,1007.7
2017-01-02T03:36:35.435Z,1007.7
2017-01-02T03:39:07.757Z,1007.7
2017-01-02T03:41:40.061Z,1007.7
2017-01-02T03:44:12.435Z,1007.7
2017-01-02T03:46:44.772Z,1007.6
2017-01-02T03:49:17.125Z,1007.7
2017-01-02T03:51:49.437Z,1007.6
2017-01-02T03:54:21.765Z,1007.7
2017-01-02T03:56:54.101Z,1007.6
2017-01-02T03:59:26.432Z,1007.6
2017-01-02T04:01:58.752Z,1007.7
2017-01-02T04:04:31.050Z,1007.7
2017-01-02T04:07:03.407Z,1007.7
2017-01-02T04:09:35.736Z,1007.7
2017-01-02T04:12:08.049Z,1007.7
2017-01-02T04:14:40.362Z,1007.7
2017-01-02T04:17:12.705Z,1007.7
2017-01-02T04:19:45.011Z,1007.6
2017-01-02T04:22:17.325Z,1007.6
2017-01-02T04:24:49.641Z,1007.7
2017-01-02T04:27:21.968Z,1007.7
2017-01-02T04:29:54.308Z,1007.7
2017-01-02T04:32:26.614Z,1007.7
2017-01-02T04:34:58.957Z,1007.7
2017-01-02T04:37:31.269Z,1007.6
2017-01-02T04:40:03.583Z,1007.7
2017-01-02T04:42:35.922Z,1007.6
2017-01-02T04:45:08.255Z,1007.6
2017-01-02T04:47:40.562Z,1007.6
2017-01-02T04:50:12.889Z,1007.6
2017-01-02T04:52:45.204Z,1007.6
2017-01-02T04:55:17.527Z,1007.7
2017-01-02T04:57:49.839Z,1007.7
2017-01-02T05:00:22.177Z,1007.7
2017-01-02T05:02:54.506Z,1007.8
2017-01-02T05:05:26.822Z,1007.8
2017-01-02T05:07:59.153Z,1007.8
2017-01-02T05:10:31.477Z,1007.8
2017-01-02T05:13:03.821Z,1007.8
2017-01-02T05:15:36.141Z,1007.8
2017-01-02T05:18:08.473Z,1007.7
2017-01-02T05:20:40.793Z,1007.8
2017-01-02T05:23:13.151Z,1007.7
2017-01-02T05:25:45.478Z,1007.8
2017-01-02T05:28:17.799Z,1007.8
2017-01-02T05:30:50.136Z,1007.7
2017-01-02T05:33:22.438Z,1007.8
2017-01-02T05:35:54.774Z,1007.8
2017-01-02T05:38:27.115Z,1007.8
2017-01-02T05:40:59.442Z,1007.9
2017-01-02T05:43:31.759Z,1007.9
2017-01-02T05:46:04.086Z,1007.9
2017-01-02T05:48:36.422Z,1007.9
2017-01-02T05:51:08.888Z,1008
2017-01-02T05:53:41.211Z,1008
2017-01-02T05:56:13.523Z,1008
2017-01-02T05:58:45.826Z,1008.1
2017-01-02T06:01:18.165Z,1008.1
2017-01-02T06:03:50.476Z,1008.1
2017-01-02T06:06:22.819Z,1008.1
2017-01-02T06:08:55.133Z,1008.1
2017-01-02T06:11:27.458Z,1008
2017-01-02T06:14:00.266Z,1008
2017-01-02T06:16:32.828Z,1008
2017-01-02T06:19:05.195Z,1008
2017-01-02T06:21:37.595Z,1008.1
2017-01-02T06:24:09.916Z,1008.1
2017-01-02T06:26:42.250Z,1008.2
2017-01-02T06:29:14.584Z,1008.2
2017-01-02T06:31:46.911Z,1008.3
2017-01-02T06:34:19.246Z,1008.3
2017-01-02T06:36:51.616Z,1008.4
2017-01-02T06:39:23.964Z,1008.3
2017-01-02T06:41:56.323Z,1008.3
2017-01-02T06:44:28.781Z,1008.3
2017-01-02T06:47:01.464Z,1008.3
2017-01-02T06:49:33.902Z,1008.3
2017-01-02T06:52:06.607Z,1008.4
2017-01-02T06:54:40.211Z,1008.5
2017-01-02T06:57:12.576Z,1008.5
2017-01-02T06:59:44.930Z,1008.4
2017-01-02T07:02:17.263Z,1008.5
2017-01-02T07:04:49.591Z,1008.5
2017-01-02T07:07:21.954Z,1008.6
2017-01-02T07:09:54.288Z,1008.7
2017-01-02T07:12:26.712Z,1008.7
2017-01-02T07:14:59.115Z,1008.8
2017-01-02T07:17:31.430Z,1008.8
2017-01-02T07:20:03.863Z,1008.9
2017-01-02T07:22:36.243Z,1008.9
2017-01-02T07:25:08.605Z,1008.9
2017-01-02T07:27:40.961Z,1009
2017-01-02T07:30:13.283Z,1009
2017-01-02T07:32:45.875Z,1009.1
2017-01-02T07:35:18.186Z,1009.1
2017-01-02T07:37:50.515Z,1009.1
2017-01-02T07:40:22.817Z,1009.1
2017-01-02T07:42:55.157Z,1009.2
2017-01-02T07:45:27.470Z,1009.2
2017-01-02T07:47:59.795Z,1009.3
2017-01-02T07:50:32.127Z,1009.3
2017-01-02T07:53:04.459Z,1009.3
2017-01-02T07:55:36.777Z,1009.4
2017-01-02T07:58:09.110Z,1009.5
2017-01-02T08:00:41.409Z,1009.5
2017-01-02T08:03:13.768Z,1009.5
2017-01-02T08:05:46.083Z,1009.5
2017-01-02T08:08:18.408Z,1009.5
2017-01-02T08:10:50.737Z,1009.6
2017-01-02T08:13:23.148Z,1009.6
2017-01-02T08:15:55.512Z,1009.6
2017-01-02T08:18:28.046Z,1009.7
2017-01-02T08:21:00.393Z,1009.6
2017-01-02T08:23:32.911Z,1009.7
2017-01-02T08:26:05.246Z,1009.8
2017-01-02T08:28:37.580Z,1009.8
2017-01-02T08:31:09.908Z,1009.9
2017-01-02T08:33:42.236Z,1009.9
2017-01-02T08:36:14.991Z,1010
2017-01-02T08:38:47.319Z,1009.9
2017-01-02T08:41:19.639Z,1010
2017-01-02T08:43:52.164Z,1010
2017-01-02T08:46:24.500Z,1010
2017-01-02T08:48:56.810Z,1010
2017-01-02T08:51:29.127Z,1010
2017-01-02T08:54:01.467Z,1010.1
2017-01-02T08:56:33.785Z,1010.1
2017-01-02T08:59:06.151Z,1010
2017-01-02T09:01:38.487Z,1010
2017-01-02T09:04:10.834Z,1010.1
2017-01-02T09:06:43.157Z,1010
2017-01-02T09:09:15.693Z,1010.1
2017-01-02T09:11:48.001Z,1010
2017-01-02T09:14:20.383Z,1010
2017-01-02T09:16:52.729Z,1010
2017-01-02T09:19:25.319Z,1010
2017-01-02T09:21:57.871Z,1010
2017-01-02T09:24:30.185Z,1010
2017-01-02T09:27:02.524Z,1010
2017-01-02T09:29:35.560Z,1010.1
2017-01-02T09:32:07.866Z,1010.2
2017-01-02T09:34:40.195Z,1010.3
2017-01-02T09:37:12.499Z,1010.2
2017-01-02T09:39:44.844Z,1010.2
2017-01-02T09:42:17.150Z,1010.2
2017-01-02T09:44:49.472Z,1010.3
2017-01-02T09:47:21.791Z,1010.3
2017-01-02T09:49:54.133Z,1010.4
2017-01-02T09:52:26.448Z,1010.3
2017-01-02T09:54:58.805Z,1010.3
2017-01-02T09:57:31.130Z,1010.4
2017-01-02T10:00:03.448Z,1010.3
2017-01-02T10:02:35.764Z,1010.3
2017-01-02T10:05:08.487Z,1010.3
2017-01-02T10:07:40.803Z,1010.3
2017-01-02T10:10:13.141Z,1010.3
2017-01-02T10:12:45.841Z,1010.3
2017-01-02T10:15:18.180Z,1010.3
2017-01-02T10:17:50.500Z,1010.2
2017-01-02T10:20:22.816Z,1010.2
2017-01-02T10:22:55.128Z,1010.2
2017-01-02T10:25:28.051Z,1010.3
2017-01-02T10:28:00.395Z,1010.2
2017-01-02T10:30:33.127Z,1010.3
2017-01-02T10:33:05.476Z,1010.3
2017-01-02T10:35:37.803Z,1010.3
2017-01-02T10:38:10.116Z,1010.3
2017-01-02T10:40:42.438Z,1010.3
2017-01-02T10:43:14.745Z,1010.3
2017-01-02T10:45:47.076Z,1010.3
2017-01-02T10:48:19.887Z,1010.3
2017-01-02T10:50:52.247Z,1010.3
2017-01-02T10:53:24.562Z,1010.3
2017-01-02T10:55:56.892Z,1010.4
2017-01-02T10:58:29.206Z,1010.4
2017-01-02T11:01:01.558Z,1010.4
2017-01-02T11:03:33.874Z,1010.3
2017-01-02T11:06:06.208Z,1010.4
2017-01-02T11:08:38.530Z,1010.4
2017-01-02T11:11:11.351Z,1010.5
2017-01-02T11:13:43.668Z,1010.5
2017-01-02T11:16:15.987Z,1010.5
2017-01-02T11:18:48.346Z,1010.4
2017-01-02T11:21:20.678Z,1010.5
2017-01-02T11:23:53.080Z,1010.4
2017-01-02T11:26:25.823Z,1010.5
2017-01-02T11:28:58.136Z,1010.5
2017-01-02T11:31:30.465Z,1010.5
2017-01-02T11:34:02.800Z,1010.5
2017-01-02T11:36:35.143Z,1010.5
2017-01-02T11:39:07.451Z,1010.6
2017-01-02T11:41:39.779Z,1010.6
2017-01-02T11:44:12.155Z,1010.6
2017-01-02T11:46:44.492Z,1010.6
2017-01-02T11:49:16.830Z,1010.6
2017-01-02T11:51:49.164Z,1010.7
2017-01-02T11:54:21.488Z,1010.7
2017-01-02T11:56:53.810Z,1010.7
2017-01-02T11:59:26.153Z,1010.8
2017-01-02T12:01:58.484Z,1010.8
2017-01-02T12:04:30.817Z,1010.9
2017-01-02T12:07:03.141Z,1010.9
2017-01-02T12:09:35.668Z,1011
2017-01-02T12:12:07.999Z,1011.1
2017-01-02T12:14:40.326Z,1011.1
2017-01-02T12:17:12.643Z,1011.1
